Time;durP1;ratioP1;P1;durP2;ratioP2;P2;SDS_P1;SDS_P2;PMS_P1;PMS_P2;Temp;Humidity;BMP_temperature;BMP_pressure;BME280_temperature;BME280_humidity;BME280_pressure;Samples;Min_cycle;Max_cycle;Signal;HPM_P1;HPM_P2
2021/12/26 00:00:56;;;;;;;;;;;-6.70;56.50;;;-7.43;97.38;98018.44;5048708;27;118967;-81
2021/12/26 00:03:27;;;;;;;;;;;-6.70;56.10;;;-7.32;96.83;98008.94;5051556;27;114630;-82
2021/12/26 00:05:58;;;;;;;;;;;-6.70;56.40;;;-7.47;97.25;98027.84;5047987;27;130303;-82
2021/12/26 00:08:26;;;;;;;;;;;-6.60;56.30;;;-7.42;97.08;98029.78;5066588;27;130257;-83
2021/12/26 00:10:54;;;;;;;;;;;-6.70;56.20;;;-7.40;96.99;98017.19;5035347;27;116874;-82
2021/12/26 00:13:23;;;;;;;;;;;-6.70;56.50;;;-7.26;96.90;98018.53;5067319;27;115065;-83
2021/12/26 00:15:52;;;;;;;;;;;-6.70;56.70;;;-7.29;96.84;98008.47;5035938;27;129158;-82
2021/12/26 00:18:21;;;;;;;;;;;-6.60;56.60;;;-7.37;96.80;98010.63;5033117;27;129159;-83
2021/12/26 00:20:51;;;;;;;;;;;-6.60;53.90;;;-7.38;96.95;98011.69;5034743;27;118854;-83
2021/12/26 00:23:21;;;;;;;;;;;-6.60;54.50;;;-7.36;96.83;98012.25;5035115;27;114284;-83
2021/12/26 00:25:49;;;;;;;;;;;-6.60;54.60;;;-7.35;97.22;98003.28;5034492;27;129975;-83
2021/12/26 00:28:17;;;;;;;;;;;-6.50;55.70;;;-7.22;96.78;98009.13;5051119;27;129355;-82
2021/12/26 00:30:46;;;;;;;;;;;-6.50;55.30;;;-7.15;96.38;98001.09;5066483;27;119082;-82
2021/12/26 00:33:15;;;;;;;;;;;-6.50;55.80;;;-7.20;97.17;97994.91;5052771;27;115565;-81
2021/12/26 00:35:43;;;;;;;;;;;-6.50;56.50;;;-7.05;96.64;98003.13;5047606;27;129801;-81
2021/12/26 00:38:13;;;;;;;;;;;-6.50;56.30;;;-7.00;96.86;97995.31;5050808;27;128794;-81
2021/12/26 00:40:42;;;;;;;;;;;-6.40;56.80;;;-7.15;96.63;98002.91;5051034;27;118929;-81
2021/12/26 00:43:11;;;;;;;;;;;-6.40;56.90;;;-7.14;97.63;97999.25;5050853;27;114072;-81
2021/12/26 00:45:41;;;;;;;;;;;-6.40;57.10;;;-6.91;96.88;98008.94;5065696;27;129934;-80
2021/12/26 00:48:09;;;;;;;;;;;-6.30;58.80;;;-6.81;96.25;98003.06;5066649;27;129775;-80
2021/12/26 00:51:01;;;;;;;;;;;-6.30;59.10;;;-6.77;95.69;98007.63;5069670;27;119312;-80
2021/12/26 00:53:33;;;;;;;;;;;-6.20;58.60;;;-6.86;96.75;98003.75;5054740;27;114437;-80
2021/12/26 00:56:01;;;;;;;;;;;-6.20;59.10;;;-6.89;97.42;97994.50;5068855;27;130664;-80
2021/12/26 00:58:30;;;;;;;;;;;-6.20;59.40;;;-6.72;96.96;98006.91;5054095;27;129536;-80
2021/12/26 01:00:58;;;;;;;;;;;-6.10;61.60;;;-6.60;96.75;98014.81;5068367;27;119204;-81
2021/12/26 01:03:27;;;;;;;;;;;-6.10;62.70;;;-6.72;97.42;98006.91;5036497;27;114498;-82
2021/12/26 01:05:58;;;;;;;;;;;-6.00;62.70;;;-6.78;97.76;98007.84;5037498;27;128913;-81
2021/12/26 01:08:30;;;;;;;;;;;-6.00;62.50;;;-6.63;97.80;98000.22;5037244;27;128855;-80
2021/12/26 01:11:04;;;;;;;;;;;-6.00;62.70;;;-6.59;97.56;98003.19;5051562;27;118883;-80
2021/12/26 01:13:38;;;;;;;;;;;-5.90;60.20;;;-6.55;97.31;98006.97;5053344;27;114805;-81
2021/12/26 01:16:41;;;;;;;;;;;-5.90;60.00;;;-6.44;96.62;98002.66;5053591;27;130499;-79
2021/12/26 01:19:13;;;;;;;;;;;-5.80;58.80;;;-6.39;96.10;97995.66;5036803;27;129190;-80
2021/12/26 01:21:43;;;;;;;;;;;-5.80;57.90;;;-6.37;96.30;97992.78;5050665;27;119202;-80
2021/12/26 01:24:15;;;;;;;;;;;-5.80;58.10;;;-6.43;96.63;97983.16;5054225;27;116038;-80
2021/12/26 01:26:46;;;;;;;;;;;-5.80;58.20;;;-6.39;95.96;97989.53;5053392;27;129817;-80
2021/12/26 01:29:35;;;;;;;;;;;-5.80;57.00;;;-6.36;95.98;97994.34;5038020;27;129632;-80
2021/12/26 01:32:05;;;;;;;;;;;-5.80;57.10;;;-6.41;96.01;97986.34;5039119;27;118109;-80
2021/12/26 01:34:51;;;;;;;;;;;-5.80;55.50;;;-6.36;95.88;97994.34;5069361;27;114862;-80
2021/12/26 01:37:33;;;;;;;;;;;-5.80;56.00;;;-6.34;94.92;97981.72;5051391;27;130306;-82
2021/12/26 01:40:34;;;;;;;;;;;-5.80;54.00;;;-6.34;96.13;97982.53;5051722;27;130436;-81
2021/12/26 01:43:11;;;;;;;;;;;-5.70;55.20;;;-6.31;95.47;97981.22;5035443;27;118519;-80
2021/12/26 01:45:49;;;;;;;;;;;-5.70;53.80;;;-6.44;95.54;97976.28;5053655;27;114847;-79
2021/12/26 01:48:19;;;;;;;;;;;-5.80;51.70;;;-6.48;95.74;97986.50;5052992;27;129958;-79
2021/12/26 01:50:48;;;;;;;;;;;-5.80;52.00;;;-6.39;95.26;97985.09;5036476;27;129553;-80
2021/12/26 01:53:19;;;;;;;;;;;-5.80;53.00;;;-6.52;95.40;97975.59;5036599;27;118213;-79
2021/12/26 01:55:47;;;;;;;;;;;-5.80;52.00;;;-6.50;95.89;97988.56;5054536;27;114590;-81
2021/12/26 01:58:21;;;;;;;;;;;-5.80;52.70;;;-6.58;96.45;97983.69;5036586;27;129495;-81
2021/12/26 02:00:53;;;;;;;;;;;-5.80;53.00;;;-6.54;96.40;97977.69;5052701;27;129781;-81
2021/12/26 02:03:21;;;;;;;;;;;-5.80;54.00;;;-6.48;97.61;97985.69;5036510;27;118037;-81
2021/12/26 02:05:49;;;;;;;;;;;-5.80;55.90;;;-6.56;97.04;97985.06;5037563;27;114460;-80
2021/12/26 02:08:18;;;;;;;;;;;-5.80;54.40;;;-6.59;96.72;97980.25;5053560;27;130181;-83
2021/12/26 02:10:48;;;;;;;;;;;-5.80;53.80;;;-6.60;96.96;97994.47;5036210;27;129064;-82
2021/12/26 02:13:18;;;;;;;;;;;-5.80;55.00;;;-6.62;97.08;97979.91;5049920;27;119015;-82
2021/12/26 02:15:46;;;;;;;;;;;-5.90;54.80;;;-6.53;96.63;97983.75;5053548;27;115223;-83
2021/12/26 02:18:15;;;;;;;;;;;-5.80;55.40;;;-6.58;97.11;97981.84;5048931;27;129487;-82
2021/12/26 02:21:03;;;;;;;;;;;-5.90;55.90;;;-6.68;96.96;97981.66;5050998;27;130624;-82
2021/12/26 02:23:55;;;;;;;;;;;-5.90;54.50;;;-6.76;97.30;97974.13;5036107;27;118384;-83
2021/12/26 02:29:09;;;;;;;;;;;-5.90;56.80;;;-6.69;97.36;97986.13;5034281;27;129235;-82
2021/12/26 02:31:38;;;;;;;;;;;-5.90;57.20;;;-6.71;97.76;97987.41;5034478;27;129063;-83
2021/12/26 02:34:06;;;;;;;;;;;-5.90;58.10;;;-6.67;98.24;97983.25;5036036;27;118627;-83
2021/12/26 02:36:35;;;;;;;;;;;-5.90;59.10;;;-6.60;98.21;97983.13;5053141;27;114478;-83
2021/12/26 02:39:06;;;;;;;;;;;-5.80;60.00;;;-6.55;97.55;97991.91;5035701;27;130338;-82
2021/12/26 02:41:34;;;;;;;;;;;-5.80;60.10;;;-6.50;97.69;97978.00;5049750;27;129787;-82
2021/12/26 02:44:03;;;;;;;;;;;-5.80;61.00;;;-6.44;97.76;97976.28;5039602;27;118455;-82
2021/12/26 02:46:35;;;;;;;;;;;-5.80;61.60;;;-6.24;96.99;97989.00;5039824;27;114083;-80
2021/12/26 02:49:04;;;;;;;;;;;-5.80;62.60;;;-6.37;96.76;97982.22;5051856;27;129091;-80
2021/12/26 02:51:32;;;;;;;;;;;-5.80;61.30;;;-6.41;97.63;97979.22;5069394;27;129712;-79
2021/12/26 02:54:02;;;;;;;;;;;-5.80;61.30;;;-6.47;97.78;97979.38;5052797;27;118909;-79
2021/12/26 02:56:30;;;;;;;;;;;-5.80;61.40;;;-6.44;97.77;97982.34;5053073;27;114243;-79
2021/12/26 02:58:58;;;;;;;;;;;-5.80;61.60;;;-6.41;98.20;97975.78;5066253;27;130419;-80
2021/12/26 03:01:29;;;;;;;;;;;-5.80;63.10;;;-6.42;97.82;97974.19;5035036;27;129700;-80
2021/12/26 03:03:59;;;;;;;;;;;-5.80;63.30;;;-6.43;98.30;97991.09;5052066;27;118282;-79
2021/12/26 03:06:33;;;;;;;;;;;-5.80;64.00;;;-6.35;97.99;97993.31;5052424;27;115593;-80
2021/12/26 03:09:04;;;;;;;;;;;-5.70;64.60;;;-6.45;98.91;98006.34;5048524;27;129970;-79
2021/12/26 03:11:32;;;;;;;;;;;-5.70;65.50;;;-6.43;98.19;98009.56;5033632;27;129012;-79
2021/12/26 03:14:01;;;;;;;;;;;-5.80;66.80;;;-6.45;99.55;98001.88;5052305;27;119220;-80
2021/12/26 03:16:30;;;;;;;;;;;-5.80;72.80;;;-6.48;99.82;98006.81;5049252;27;114856;-79
2021/12/26 03:18:59;;;;;;;;;;;-5.80;76.30;;;-6.47;100.00;98009.22;5034755;27;129714;-80
2021/12/26 03:21:28;;;;;;;;;;;-5.80;80.60;;;-6.48;100.00;98010.28;5051919;27;129785;-79
2021/12/26 03:23:57;;;;;;;;;;;-5.80;83.10;;;-6.42;100.00;98008.50;5048846;27;119192;-79
2021/12/26 03:26:27;;;;;;;;;;;-5.80;85.10;;;-6.38;100.00;97999.06;5048905;27;115141;-82
2021/12/26 03:28:56;;;;;;;;;;;-5.80;86.40;;;-6.45;100.00;97995.78;5034767;27;129447;-80
2021/12/26 03:31:24;;;;;;;;;;;-5.80;84.80;;;-6.52;100.00;98002.00;5066751;27;130051;-81
2021/12/26 03:33:52;;;;;;;;;;;-5.80;82.20;;;-6.43;100.00;98009.56;5035347;27;118171;-80
2021/12/26 03:36:21;;;;;;;;;;;-5.70;82.80;;;-6.36;100.00;98010.19;5052090;27;114059;-80
2021/12/26 03:38:49;;;;;;;;;;;-5.70;83.80;;;-6.34;100.00;98010.78;5034675;27;129633;-82
2021/12/26 03:41:23;;;;;;;;;;;-5.70;80.80;;;-6.36;100.00;97999.63;5033368;27;129147;-82
2021/12/26 03:43:58;;;;;;;;;;;-5.60;79.30;;;-6.33;100.00;97999.16;5034818;27;118575;-83
2021/12/26 03:46:27;;;;;;;;;;;-5.60;78.80;;;-6.25;100.00;98006.69;5035196;27;114035;-83
2021/12/26 03:48:55;;;;;;;;;;;-5.60;79.10;;;-6.23;100.00;98004.63;5034342;27;129400;-83
2021/12/26 03:51:23;;;;;;;;;;;-5.50;78.50;;;-6.12;100.00;97999.50;5034482;27;129197;-80
2021/12/26 03:53:52;;;;;;;;;;;-5.50;79.10;;;-6.22;100.00;98005.41;5052171;27;118200;-82
2021/12/26 03:56:20;;;;;;;;;;;-5.50;78.00;;;-6.10;100.00;98015.91;5052016;27;115024;-81
2021/12/26 03:59:10;;;;;;;;;;;-5.50;79.10;;;-6.09;100.00;98002.47;5051394;27;130175;-81
2021/12/26 04:01:39;;;;;;;;;;;-5.50;79.20;;;-6.04;99.69;98007.81;5034196;27;129419;-81
2021/12/26 04:04:08;;;;;;;;;;;-5.40;78.10;;;-6.08;100.00;98013.81;5051544;27;118308;-81
2021/12/26 04:06:36;;;;;;;;;;;-5.40;77.10;;;-6.05;100.00;98000.94;5034769;27;113927;-80
2021/12/26 04:09:06;;;;;;;;;;;-5.30;77.20;;;-5.96;99.89;97999.47;5034584;27;129536;-82
2021/12/26 04:11:38;;;;;;;;;;;-5.30;75.70;;;-5.91;99.99;98004.03;5034781;27;129109;-81
2021/12/26 04:14:07;;;;;;;;;;;-5.30;76.40;;;-5.91;99.67;98011.94;5051758;27;118726;-81
2021/12/26 04:16:36;;;;;;;;;;;-5.30;75.40;;;-5.88;99.78;98019.41;5034925;27;114116;-80
2021/12/26 04:19:05;;;;;;;;;;;-5.20;73.40;;;-5.83;100.00;98019.50;5033829;27;129082;-80
2021/12/26 04:21:34;;;;;;;;;;;-5.20;74.00;;;-5.84;99.90;98011.81;5034067;27;129816;-81
2021/12/26 04:24:05;;;;;;;;;;;-5.20;74.00;;;-5.74;99.50;98021.72;5047802;27;118889;-81
2021/12/26 04:26:34;;;;;;;;;;;-5.10;74.30;;;-5.77;99.80;98018.50;5051597;27;114121;-81
2021/12/26 04:29:02;;;;;;;;;;;-5.10;73.50;;;-5.70;99.75;98017.53;5034137;27;130010;-81
2021/12/26 04:31:31;;;;;;;;;;;-5.10;76.00;;;-5.73;100.00;98012.75;5033657;27;128886;-81
2021/12/26 04:34:03;;;;;;;;;;;-5.10;78.50;;;-5.75;100.00;98012.97;5034957;27;109650;-80
2021/12/26 04:36:31;;;;;;;;;;;-5.10;83.30;;;-5.77;100.00;98009.78;5034446;27;113736;-81
2021/12/26 04:39:01;;;;;;;;;;;-5.10;82.30;;;-5.79;100.00;98009.25;5033872;27;129791;-80
2021/12/26 04:41:29;;;;;;;;;;;-5.10;82.90;;;-5.75;100.00;98020.13;5047655;27;129635;-80
2021/12/26 04:44:29;;;;;;;;;;;-5.10;85.10;;;-5.75;100.00;98014.84;5043340;27;118801;-80
2021/12/26 04:47:16;;;;;;;;;;;-5.10;86.50;;;-5.74;100.00;98014.59;5050681;27;117142;-81
2021/12/26 04:49:47;;;;;;;;;;;-5.10;86.60;;;-5.73;100.00;98018.03;5032874;27;129677;-81
2021/12/26 04:52:17;;;;;;;;;;;-5.10;86.30;;;-5.64;100.00;98014.75;5049209;27;129865;-82
2021/12/26 04:54:46;;;;;;;;;;;-5.00;84.60;;;-5.66;100.00;98018.66;5058572;27;118556;-81
2021/12/26 04:57:14;;;;;;;;;;;-5.00;84.40;;;-5.72;100.00;98009.06;5035508;27;114086;-83
2021/12/26 04:59:46;;;;;;;;;;;-5.00;80.60;;;-5.69;100.00;98019.16;5039960;27;131169;-83
2021/12/26 05:02:14;;;;;;;;;;;-4.90;82.80;;;-5.64;100.00;98019.22;5039448;27;128398;-82
2021/12/26 05:04:47;;;;;;;;;;;-4.90;82.00;;;-5.57;100.00;98006.66;5031556;27;119137;-82
2021/12/26 05:07:15;;;;;;;;;;;-4.90;82.60;;;-5.57;100.00;98001.34;5015798;27;114051;-81
2021/12/26 05:09:45;;;;;;;;;;;-4.90;82.00;;;-5.56;100.00;97997.69;5013986;27;129285;-79
2021/12/26 05:12:14;;;;;;;;;;;-4.90;83.10;;;-5.56;100.00;98000.31;5045295;27;129896;-80
2021/12/26 05:14:42;;;;;;;;;;;-4.90;83.60;;;-5.48;100.00;98005.19;5013676;27;118679;-79
2021/12/26 05:17:10;;;;;;;;;;;-4.90;84.80;;;-5.42;100.00;98020.09;5022216;27;114150;-80
2021/12/26 05:19:39;;;;;;;;;;;-4.80;83.80;;;-5.59;100.00;98019.31;5031043;27;130003;-82
2021/12/26 05:22:09;;;;;;;;;;;-4.80;81.30;;;-5.49;100.00;98039.81;5030042;27;129134;-82
2021/12/26 05:24:38;;;;;;;;;;;-4.80;82.40;;;-5.59;100.00;98032.53;5013568;27;117903;-75
2021/12/26 05:27:07;;;;;;;;;;;-4.80;81.00;;;-5.58;100.00;98036.75;5029740;27;114654;-83
2021/12/26 05:29:36;;;;;;;;;;;-4.80;79.70;;;-5.57;100.00;98033.06;5023834;27;130407;-83
2021/12/26 05:32:04;;;;;;;;;;;-4.80;80.40;;;-5.59;100.00;98027.25;5005046;28;129504;-83
2021/12/26 05:34:35;;;;;;;;;;;-4.80;80.20;;;-5.55;100.00;98033.63;4993459;28;118140;-82
2021/12/26 05:37:05;;;;;;;;;;;-4.80;80.40;;;-5.45;100.00;98036.44;4993357;28;114944;-83
2021/12/26 05:39:36;;;;;;;;;;;-4.80;81.30;;;-5.45;100.00;98040.94;4996546;28;129104;-81
2021/12/26 05:42:07;;;;;;;;;;;-4.80;82.50;;;-5.57;100.00;98033.06;4995999;28;129225;-83
2021/12/26 05:44:41;;;;;;;;;;;-4.80;82.10;;;-5.61;100.00;98031.94;5008050;28;118580;-82
2021/12/26 05:47:10;;;;;;;;;;;-4.80;82.40;;;-5.47;100.00;98022.66;5010512;28;114036;-82
2021/12/26 05:50:13;;;;;;;;;;;-4.80;84.50;;;-5.50;100.00;98033.72;5018522;28;130114;-82
2021/12/26 05:52:45;;;;;;;;;;;-4.70;84.20;;;-5.42;100.00;98022.72;4996673;28;129022;-83
2021/12/26 05:55:20;;;;;;;;;;;-4.70;84.50;;;-5.53;100.00;98018.34;5013339;28;118312;-82
2021/12/26 05:57:51;;;;;;;;;;;-4.70;84.40;;;-5.53;100.00;98015.69;5030522;28;114309;-82
2021/12/26 06:00:23;;;;;;;;;;;-4.70;84.80;;;-5.44;100.00;98011.59;4995567;28;130302;-83
2021/12/26 06:02:52;;;;;;;;;;;-4.70;85.60;;;-5.42;100.00;98030.66;5027761;28;129849;-83
2021/12/26 06:05:21;;;;;;;;;;;-4.70;85.50;;;-5.46;100.00;98029.53;5028009;28;119596;-83
2021/12/26 06:07:50;;;;;;;;;;;-4.70;86.10;;;-5.38;100.00;98024.88;4997162;28;114121;-75
2021/12/26 06:10:21;;;;;;;;;;;-4.70;86.30;;;-5.34;100.00;98036.59;5006066;28;130039;-81
2021/12/26 06:12:49;;;;;;;;;;;-4.70;86.90;;;-5.42;100.00;98035.94;5009381;28;129944;-80
2021/12/26 06:15:17;;;;;;;;;;;-4.60;86.70;;;-5.33;100.00;98049.56;5011812;28;118763;-80
2021/12/26 06:17:46;;;;;;;;;;;-4.60;86.60;;;-5.27;100.00;98034.53;5010752;28;114909;-79
2021/12/26 06:20:32;;;;;;;;;;;-4.60;86.40;;;-5.27;100.00;98031.91;5024607;28;129882;-79
2021/12/26 06:23:30;;;;;;;;;;;-4.60;85.50;;;-5.32;100.00;98023.91;5014830;28;129663;-79
2021/12/26 06:26:27;;;;;;;;;;;-4.60;85.10;;;-5.25;100.00;98035.09;5011546;28;118456;-77
2021/12/26 06:28:59;;;;;;;;;;;-4.60;85.70;;;-5.26;100.00;98052.03;5011424;28;117060;-82
2021/12/26 06:31:42;;;;;;;;;;;-4.50;86.30;;;-5.30;100.00;98038.50;5025600;27;129900;-79
2021/12/26 06:34:36;;;;;;;;;;;-4.50;86.10;;;-5.29;100.00;98028.72;5046116;27;129748;-79
2021/12/26 06:37:22;;;;;;;;;;;-4.50;86.80;;;-5.24;100.00;98036.69;5016315;27;118655;-78
2021/12/26 06:40:11;;;;;;;;;;;-4.50;85.80;;;-5.21;100.00;98041.50;5007125;28;114633;-79
2021/12/26 06:42:59;;;;;;;;;;;-4.50;88.30;;;-5.22;100.00;98045.19;5008184;28;130413;-79
2021/12/26 06:45:46;;;;;;;;;;;-4.50;88.80;;;-5.19;100.00;98034.13;5039667;27;130449;-79
2021/12/26 06:48:33;;;;;;;;;;;-4.50;90.00;;;-5.19;100.00;98039.41;5015572;27;118381;-79
2021/12/26 06:51:02;;;;;;;;;;;-4.50;89.20;;;-5.07;100.00;98037.44;5015157;27;114264;-79
2021/12/26 06:53:31;;;;;;;;;;;-4.40;90.20;;;-5.03;100.00;98047.53;5022887;28;128701;-79
2021/12/26 06:55:59;;;;;;;;;;;-4.40;87.50;;;-4.93;100.00;98058.28;5016913;27;129536;-78
2021/12/26 06:58:29;;;;;;;;;;;-4.40;86.80;;;-4.96;100.00;98059.56;5023504;27;118435;-79
2021/12/26 07:00:58;;;;;;;;;;;-4.40;84.50;;;-4.98;100.00;98060.84;5037654;27;114604;-80
2021/12/26 07:03:26;;;;;;;;;;;-4.30;81.00;;;-4.92;100.00;98054.59;5020381;27;129834;-79
2021/12/26 07:05:56;;;;;;;;;;;-4.30;80.70;;;-4.88;100.00;98060.97;5011718;28;129443;-79
2021/12/26 07:08:27;;;;;;;;;;;-4.30;75.80;;;-4.83;99.59;98063.69;5038780;27;119668;-79
2021/12/26 07:10:58;;;;;;;;;;;-4.30;74.20;;;-4.80;98.69;98078.28;5031855;27;114067;-79
2021/12/26 07:13:29;;;;;;;;;;;-4.20;73.60;;;-4.71;99.03;98087.38;5014501;27;129638;-79
2021/12/26 07:15:57;;;;;;;;;;;-4.20;72.40;;;-4.73;98.78;98087.63;5028184;27;129789;-79
2021/12/26 07:18:26;;;;;;;;;;;-4.20;73.90;;;-4.71;99.11;98088.19;5014751;27;118388;-78
2021/12/26 07:20:58;;;;;;;;;;;-4.10;71.80;;;-4.63;98.79;98078.22;5028845;27;115390;-79
2021/12/26 07:23:56;;;;;;;;;;;-4.10;71.60;;;-4.48;97.96;98070.44;4999319;28;130170;-78
2021/12/26 07:26:25;;;;;;;;;;;-4.00;67.60;;;-4.32;96.84;98073.25;4996252;27;129928;-78
2021/12/26 07:28:54;;;;;;;;;;;-4.00;67.20;;;-4.38;97.93;98069.75;5028419;27;119271;-78
2021/12/26 07:31:24;;;;;;;;;;;-4.00;75.10;;;-4.42;98.47;98063.38;5015207;27;114390;-79
2021/12/26 07:33:58;;;;;;;;;;;-4.00;80.10;;;-4.50;99.13;98080.50;5031416;27;129676;-79
2021/12/26 07:36:27;;;;;;;;;;;-4.00;81.10;;;-4.52;98.75;98069.31;5046567;27;129820;-79
2021/12/26 07:38:59;;;;;;;;;;;-4.10;80.90;;;-4.56;99.60;98074.31;5028340;27;118943;-79
2021/12/26 07:41:31;;;;;;;;;;;-4.10;84.40;;;-4.71;100.00;98060.91;5046036;27;114548;-80
2021/12/26 07:44:01;;;;;;;;;;;-4.10;81.70;;;-4.58;99.85;98070.31;5024674;27;129826;-79
2021/12/26 07:46:39;;;;;;;;;;;-4.00;80.60;;;-4.43;99.26;98077.66;5045778;27;129743;-80
2021/12/26 07:49:17;;;;;;;;;;;-3.90;76.30;;;-4.45;99.06;98067.28;5031234;27;118190;-78
2021/12/26 07:52:11;;;;;;;;;;;-3.90;72.40;;;-4.38;98.92;98070.56;5026539;27;115141;-79
2021/12/26 07:55:17;;;;;;;;;;;-3.80;71.80;;;-4.13;97.57;98066.53;4959447;28;129233;-79
2021/12/26 07:58:24;;;;;;;;;;;-3.70;67.70;;;-3.97;96.76;98070.94;4946064;28;130539;-79
2021/12/26 08:01:17;;;;;;;;;;;-3.60;65.50;;;-4.20;97.06;98076.56;4959152;28;118591;-79
2021/12/26 08:04:02;;;;;;;;;;;-3.70;65.00;;;-4.08;96.66;98079.03;4999610;27;113689;-79
2021/12/26 08:06:48;;;;;;;;;;;-3.70;67.20;;;-4.00;96.44;98084.69;5045834;27;130066;-80
2021/12/26 08:09:17;;;;;;;;;;;-3.60;65.40;;;-3.80;95.55;98080.66;5013820;27;129267;-78
2021/12/26 08:11:45;;;;;;;;;;;-3.50;63.30;;;-3.71;94.88;98089.75;5014277;27;119317;-79
2021/12/26 08:14:13;;;;;;;;;;;-3.40;58.50;;;-3.71;94.55;98095.03;5028189;27;115887;-79
2021/12/26 08:16:43;;;;;;;;;;;-3.40;57.60;;;-3.66;94.63;98087.13;5039519;27;129518;-79
2021/12/26 08:19:11;;;;;;;;;;;-3.30;54.80;;;-3.55;94.14;98109.22;5009986;28;130356;-79
2021/12/26 08:21:43;;;;;;;;;;;-3.40;52.40;;;-3.19;92.12;98111.34;5007295;28;118725;-80
2021/12/26 08:24:11;;;;;;;;;;;-3.10;49.70;;;-3.25;92.10;98103.31;5019415;27;115141;-81
2021/12/26 08:26:40;;;;;;;;;;;-3.00;49.60;;;-3.31;92.29;98112.31;5026876;27;130854;-77
2021/12/26 08:29:08;;;;;;;;;;;-3.10;52.10;;;-3.36;92.98;98112.28;5029008;27;129637;-81
2021/12/26 08:31:37;;;;;;;;;;;-3.10;50.70;;;-3.36;93.32;98111.47;5016870;27;118355;-80
2021/12/26 08:34:07;;;;;;;;;;;-3.10;52.70;;;-3.13;92.09;98115.59;5047738;27;114617;-80
2021/12/26 08:36:35;;;;;;;;;;;-3.00;49.30;;;-3.11;91.69;98113.50;5047884;27;129878;-80
2021/12/26 08:39:04;;;;;;;;;;;-3.00;48.60;;;-3.13;91.38;98123.56;5050350;27;130821;-78
2021/12/26 08:41:32;;;;;;;;;;;-3.00;48.80;;;-3.33;92.20;98110.97;5050045;27;119303;-78
2021/12/26 08:44:01;;;;;;;;;;;-3.10;49.40;;;-3.54;93.60;98131.22;5065726;27;114721;-77
2021/12/26 08:46:29;;;;;;;;;;;-3.20;49.70;;;-3.55;93.13;98124.31;5065005;27;130717;-78
2021/12/26 08:48:57;;;;;;;;;;;-3.20;50.50;;;-3.48;93.02;98138.19;5050145;27;129507;-80
2021/12/26 08:51:27;;;;;;;;;;;-3.20;51.10;;;-3.64;94.34;98132.75;5033636;27;118445;-78
2021/12/26 08:53:55;;;;;;;;;;;-3.20;51.30;;;-3.52;94.17;98152.97;5033621;27;114470;-79
2021/12/26 08:56:23;;;;;;;;;;;-3.20;52.80;;;-3.51;93.84;98147.44;5046365;27;130148;-79
2021/12/26 08:58:52;;;;;;;;;;;-3.20;52.70;;;-3.58;93.72;98156.66;5080444;27;129767;-79
2021/12/26 09:01:20;;;;;;;;;;;-3.20;51.50;;;-3.49;93.52;98155.94;5063448;27;119073;-78
2021/12/26 09:03:48;;;;;;;;;;;-3.10;52.00;;;-3.50;92.78;98148.25;5061370;27;115474;-78
2021/12/26 09:06:16;;;;;;;;;;;-3.10;47.60;;;-3.51;92.98;98154.59;5063685;27;130419;-77
2021/12/26 09:08:46;;;;;;;;;;;-3.10;46.60;;;-3.44;92.24;98153.34;5063516;27;129836;-78
2021/12/26 09:11:16;;;;;;;;;;;-3.10;45.50;;;-3.49;92.36;98155.13;5067257;27;119031;-79
2021/12/26 09:13:44;;;;;;;;;;;-3.10;45.80;;;-3.26;91.78;98165.44;5071738;27;115285;-79
2021/12/26 09:16:14;;;;;;;;;;;-3.10;46.90;;;-3.34;91.74;98159.78;5067857;27;129823;-79
2021/12/26 09:18:43;;;;;;;;;;;-3.10;44.90;;;-3.38;91.63;98159.50;5068705;27;129987;-80
2021/12/26 09:21:11;;;;;;;;;;;-3.10;44.60;;;-2.72;89.26;98150.38;5085732;27;119434;-79
2021/12/26 09:23:39;;;;;;;;;;;-2.80;41.20;;;-2.44;87.45;98159.00;5050594;27;114523;-79
2021/12/26 09:26:09;;;;;;;;;;;-2.70;38.70;;;-2.45;87.34;98157.41;5035873;27;129125;-79
2021/12/26 09:28:38;;;;;;;;;;;-2.70;36.90;;;-2.63;87.66;98167.41;5036571;27;129158;-79
2021/12/26 09:31:06;;;;;;;;;;;-2.70;36.80;;;-3.04;88.86;98175.13;5054015;27;118705;-79
2021/12/26 09:33:34;;;;;;;;;;;-2.90;38.20;;;-3.34;90.90;98170.38;5066635;27;114658;-81
2021/12/26 09:36:02;;;;;;;;;;;-3.20;48.30;;;-3.57;94.80;98174.94;5050213;27;129923;-79
2021/12/26 09:38:31;;;;;;;;;;;-3.30;60.50;;;-3.69;96.40;98177.78;5068524;27;130301;-79
2021/12/26 09:41:00;;;;;;;;;;;-3.40;72.30;;;-3.53;96.42;98175.28;5068720;27;119237;-79
2021/12/26 09:43:29;;;;;;;;;;;-3.40;77.20;;;-3.17;94.95;98188.84;5069105;27;114939;-78
2021/12/26 09:45:58;;;;;;;;;;;-3.40;74.70;;;-3.00;93.24;98178.88;5036317;27;129961;-79
2021/12/26 09:48:26;;;;;;;;;;;-3.00;66.10;;;-3.09;92.56;98183.06;5068193;27;129761;-79
2021/12/26 09:50:55;;;;;;;;;;;-3.10;62.90;;;-2.84;90.61;98186.94;5068722;27;119209;-78
2021/12/26 09:53:24;;;;;;;;;;;-3.00;58.10;;;-3.00;90.88;98189.50;5053759;27;115231;-78
2021/12/26 09:55:52;;;;;;;;;;;-3.00;50.40;;;-2.81;89.80;98187.22;5067004;27;130893;-79
2021/12/26 09:58:20;;;;;;;;;;;-2.90;51.20;;;-3.07;90.17;98184.41;5067779;27;130030;-78
2021/12/26 10:00:50;;;;;;;;;;;-3.10;50.50;;;-3.10;91.43;98194.72;5053288;27;118498;-78
2021/12/26 10:03:22;;;;;;;;;;;-3.00;51.40;;;-3.12;91.71;98202.13;5031663;27;114036;-78
2021/12/26 10:06:03;;;;;;;;;;;-3.00;50.80;;;-3.27;92.27;98203.63;5032472;27;129596;-78
2021/12/26 10:08:34;;;;;;;;;;;-3.00;49.40;;;-2.82;90.82;98206.06;5032489;27;131273;-78
2021/12/26 10:11:12;;;;;;;;;;;-2.90;48.00;;;-2.46;89.19;98208.94;5032980;27;118622;-78
2021/12/26 10:13:57;;;;;;;;;;;-2.70;48.70;;;-2.83;89.20;98210.59;5033009;27;114143;-78
2021/12/26 10:16:29;;;;;;;;;;;-2.80;43.80;;;-3.13;90.53;98222.56;5031661;27;129151;-78
2021/12/26 10:18:58;;;;;;;;;;;-3.00;46.40;;;-3.21;91.41;98208.97;5031408;27;129123;-79
2021/12/26 10:21:38;;;;;;;;;;;-3.00;47.20;;;-3.38;92.35;98217.84;5047684;27;120247;-78
2021/12/26 10:24:12;;;;;;;;;;;-3.00;47.40;;;-3.11;92.07;98214.38;5047173;27;115024;-78
2021/12/26 10:26:50;;;;;;;;;;;-2.90;49.70;;;-2.81;90.97;98207.69;5046564;27;129804;-78
2021/12/26 10:29:32;;;;;;;;;;;-2.70;46.40;;;-2.59;89.78;98210.97;5031498;27;128834;-78
2021/12/26 10:32:05;;;;;;;;;;;-2.70;44.90;;;-2.48;88.78;98211.06;5066392;27;118602;-78
2021/12/26 10:34:41;;;;;;;;;;;-2.60;41.00;;;-2.51;87.39;98216.88;5047999;27;115416;-78
2021/12/26 10:37:12;;;;;;;;;;;-2.60;37.80;;;-2.79;89.31;98226.78;5033489;27;129953;-78
2021/12/26 10:39:43;;;;;;;;;;;-2.70;40.60;;;-2.76;90.08;98229.75;5032104;27;129923;-79
2021/12/26 10:42:16;;;;;;;;;;;-2.70;42.20;;;-2.77;89.65;98236.13;5066452;27;118731;-78
2021/12/26 10:44:46;;;;;;;;;;;-2.60;41.10;;;-2.78;89.53;98217.78;5032610;27;114727;-77
2021/12/26 10:47:18;;;;;;;;;;;-2.60;41.10;;;-2.75;89.47;98227.91;5048578;27;130103;-78
2021/12/26 10:49:52;;;;;;;;;;;-2.60;38.10;;;-2.56;88.81;98237.03;5048857;27;129185;-79
2021/12/26 10:52:24;;;;;;;;;;;-2.50;39.20;;;-2.80;89.71;98225.22;5051739;27;118345;-78
2021/12/26 10:54:57;;;;;;;;;;;-2.60;40.80;;;-3.02;90.33;98239.38;5035683;27;114270;-78
2021/12/26 10:57:28;;;;;;;;;;;-2.70;40.40;;;-3.11;91.10;98246.22;5066859;27;129878;-79
2021/12/26 11:00:08;;;;;;;;;;;-2.80;43.40;;;-2.95;91.43;98247.91;5067257;27;130515;-80
2021/12/26 11:02:40;;;;;;;;;;;-2.70;44.80;;;-2.77;90.23;98241.44;5067496;27;119626;-78
2021/12/26 11:05:11;;;;;;;;;;;-2.60;41.30;;;-2.75;89.36;98235.88;5084730;27;114952;-78
2021/12/26 11:07:56;;;;;;;;;;;-2.50;37.80;;;-2.40;88.66;98229.16;5051854;27;129363;-77
2021/12/26 11:10:27;;;;;;;;;;;-2.40;35.70;;;-2.44;87.83;98259.97;5048094;27;129221;-77
2021/12/26 11:13:00;;;;;;;;;;;-2.40;34.00;;;-2.63;88.42;98257.72;5045980;27;118930;-79
2021/12/26 11:15:33;;;;;;;;;;;-2.50;35.60;;;-2.86;89.35;98253.56;5031974;27;114266;-78
2021/12/26 11:18:11;;;;;;;;;;;-2.60;38.00;;;-2.91;90.46;98267.63;5046121;27;129998;-77
2021/12/26 11:20:42;;;;;;;;;;;-2.70;44.90;;;-3.05;90.75;98277.06;5046232;27;129898;-76
2021/12/26 11:23:14;;;;;;;;;;;-2.80;51.00;;;-3.07;91.81;98279.97;5046416;27;118096;-78
2021/12/26 11:25:45;;;;;;;;;;;-2.70;46.20;;;-2.86;91.39;98287.31;5047212;27;114926;-77
2021/12/26 11:28:26;;;;;;;;;;;-2.80;46.30;;;-2.78;91.62;98286.84;5030691;27;128664;-75
2021/12/26 11:30:55;;;;;;;;;;;-2.60;45.40;;;-2.63;90.52;98289.59;5031764;27;129448;-79
2021/12/26 11:33:25;;;;;;;;;;;-2.60;44.10;;;-2.58;90.23;98296.81;5042404;27;118786;-78